createdAt,value
2022-11-28T00:01:25.006Z,88.05
2022-11-28T00:03:51.745Z,79.55
2022-11-28T00:06:18.741Z,91.43
2022-11-28T00:08:45.901Z,95.18
2022-11-28T00:11:14.984Z,93.47
2022-11-28T00:13:42.426Z,94.05
2022-11-28T00:16:13.137Z,87.07
2022-11-28T00:18:39.845Z,82.97
2022-11-28T00:21:09.692Z,87.15
2022-11-28T00:23:36.447Z,87.82
2022-11-28T00:26:07.209Z,89.10
2022-11-28T00:28:34.118Z,90.32
2022-11-28T00:31:00.991Z,86.53
2022-11-28T00:33:27.928Z,86.60
2022-11-28T00:36:02.048Z,83.15
2022-11-28T00:38:29.436Z,86.82
2022-11-28T00:41:08.754Z,84.63
2022-11-28T00:45:56.543Z,89.15
2022-11-28T00:48:24.055Z,90.63
2022-11-28T00:50:51.242Z,85.72
2022-11-28T00:53:17.885Z,82.22
2022-11-28T00:55:44.706Z,83.85
2022-11-28T00:58:11.607Z,86.72
2022-11-28T01:00:38.787Z,87.82
2022-11-28T01:03:05.555Z,87.63
2022-11-28T01:05:32.102Z,83.10
2022-11-28T01:07:58.756Z,96.93
2022-11-28T01:10:25.566Z,84.50
2022-11-28T01:12:52.127Z,90.22
2022-11-28T01:15:18.627Z,87.32
2022-11-28T01:17:45.322Z,84.47
2022-11-28T01:20:12.428Z,88.53
2022-11-28T01:22:39.095Z,83.82
2022-11-28T01:25:05.962Z,90.57
2022-11-28T01:27:32.552Z,82.68
2022-11-28T01:32:30.225Z,88.63
2022-11-28T01:34:57.865Z,81.50
2022-11-28T01:37:24.358Z,81.07
2022-11-28T01:39:51.026Z,82.95
2022-11-28T01:42:20.093Z,81.07
2022-11-28T01:44:49.627Z,90.32
2022-11-28T01:47:23.224Z,84.57
2022-11-28T01:49:51.923Z,61.53
2022-11-28T01:52:20.231Z,80.78
2022-11-28T01:54:50.815Z,150.43
2022-11-28T01:57:21.698Z,74.07
2022-11-28T02:00:02.041Z,92.22
2022-11-28T02:02:47.699Z,61.75
2022-11-28T02:05:15.888Z,66.20
2022-11-28T02:07:44.037Z,65.78
2022-11-28T02:10:15.117Z,73.95
2022-11-28T02:13:00.577Z,75.32
2022-11-28T02:15:51.311Z,66.22
2022-11-28T02:18:35.294Z,69.80
2022-11-28T02:21:11.183Z,74.20
2022-11-28T02:23:59.602Z,72.50
2022-11-28T02:26:44.638Z,76.72
2022-11-28T02:29:48.231Z,71.47
2022-11-28T02:32:23.623Z,69.03
2022-11-28T02:35:14.894Z,70.13
2022-11-28T02:37:50.643Z,66.75
2022-11-28T02:40:26.615Z,65.75
2022-11-28T02:43:23.731Z,72.40
2022-11-28T02:45:57.368Z,72.82
2022-11-28T02:48:55.239Z,67.32
2022-11-28T02:51:41.519Z,79.97
2022-11-28T02:54:12.834Z,72.35
2022-11-28T02:56:39.456Z,70.97
2022-11-28T02:59:45.778Z,75.05
2022-11-28T03:02:29.049Z,70.55
2022-11-28T03:05:12.206Z,80.68
2022-11-28T03:08:00.107Z,79.32
2022-11-28T03:10:30.476Z,74.88
2022-11-28T03:13:06.043Z,69.88
2022-11-28T03:15:44.350Z,72.35
2022-11-28T03:18:28.607Z,65.68
2022-11-28T03:21:26.126Z,64.20
2022-11-28T03:24:17.758Z,79.25
2022-11-28T03:27:00.070Z,79.32
2022-11-28T03:29:36.872Z,89.93
2022-11-28T03:32:09.679Z,70.93
2022-11-28T03:34:41.022Z,62.33
2022-11-28T03:37:22.561Z,79.73
2022-11-28T03:39:57.731Z,76.15
2022-11-28T03:42:28.320Z,83.45
2022-11-28T03:45:14.031Z,68.57
2022-11-28T03:47:47.629Z,73.32
2022-11-28T03:50:40.170Z,77.57
2022-11-28T03:53:13.676Z,76.10
2022-11-28T03:55:56.858Z,78.18
2022-11-28T03:58:32.422Z,72.30
2022-11-28T04:01:33.492Z,79.40
2022-11-28T04:06:26.507Z,67.53
2022-11-28T04:09:03.793Z,76.28
2022-11-28T04:11:55.582Z,81.15
2022-11-28T04:14:30.407Z,82.65
2022-11-28T04:17:10.626Z,78.93
2022-11-28T04:19:45.187Z,75.75
2022-11-28T04:22:32.796Z,72.30
2022-11-28T04:25:07.787Z,77.13
2022-11-28T04:27:57.695Z,79.30
2022-11-28T04:30:24.374Z,69.93
2022-11-28T04:32:56.187Z,73.97
2022-11-28T04:35:28.813Z,75.18
2022-11-28T04:37:58.060Z,77.38
2022-11-28T04:40:27.428Z,78.93
2022-11-28T04:42:59.002Z,82.57
2022-11-28T04:45:39.887Z,79.47
2022-11-28T04:48:07.379Z,75.38
2022-11-28T04:51:07.416Z,79.82
2022-11-28T04:53:44.062Z,72.03
2022-11-28T04:56:20.255Z,86.18
2022-11-28T04:58:49.489Z,76.82
2022-11-28T05:01:24.243Z,97.65
2022-11-28T05:03:51.341Z,73.95
2022-11-28T05:06:28.397Z,76.30
2022-11-28T05:08:55.657Z,65.50
2022-11-28T05:11:22.177Z,74.22
2022-11-28T05:13:48.747Z,81.32
2022-11-28T05:16:16.431Z,101.13
2022-11-28T05:18:43.957Z,91.47
2022-11-28T05:21:11.274Z,84.70
2022-11-28T05:23:39.726Z,96.97
2022-11-28T05:26:07.790Z,95.53
2022-11-28T05:28:34.520Z,81.80
2022-11-28T05:31:02.614Z,89.28
2022-11-28T05:33:30.519Z,86.45
2022-11-28T05:36:12.617Z,80.53
2022-11-28T05:38:40.822Z,92.10
2022-11-28T05:41:07.427Z,74.47
2022-11-28T05:43:34.258Z,83.78
2022-11-28T05:46:00.798Z,93.05
2022-11-28T05:48:27.401Z,84.03
2022-11-28T05:50:53.987Z,81.45
2022-11-28T05:53:20.668Z,75.80
2022-11-28T05:55:47.498Z,75.05
2022-11-28T05:58:14.545Z,76.05
2022-11-28T06:00:41.036Z,75.80
2022-11-28T06:03:07.793Z,77.65
2022-11-28T06:05:42.909Z,68.40
2022-11-28T06:08:13.283Z,70.70
2022-11-28T06:10:40.527Z,74.88
2022-11-28T06:13:07.115Z,75.15
2022-11-28T06:15:37.846Z,74.40
2022-11-28T06:18:05.392Z,62.22
2022-11-28T06:20:31.908Z,62.03
2022-11-28T06:22:58.458Z,75.45
2022-11-28T06:25:25.051Z,73.93
2022-11-28T06:27:51.585Z,73.38
2022-11-28T06:30:21.018Z,67.15
2022-11-28T06:32:47.675Z,64.20
2022-11-28T06:35:14.330Z,66.45
2022-11-28T06:37:40.882Z,76.88
2022-11-28T06:40:07.965Z,63.00
2022-11-28T06:42:36.319Z,65.80
2022-11-28T06:45:04.507Z,64.88
2022-11-28T06:47:31.403Z,67.40
2022-11-28T06:49:58.055Z,63.67
2022-11-28T06:52:24.655Z,61.42
2022-11-28T06:54:51.235Z,62.25
2022-11-28T06:57:17.819Z,67.28
2022-11-28T06:59:44.674Z,69.30
2022-11-28T07:02:11.826Z,65.25
2022-11-28T07:04:38.551Z,60.08
2022-11-28T07:07:05.155Z,61.25
2022-11-28T07:09:31.695Z,60.85
2022-11-28T07:11:58.331Z,59.50
2022-11-28T07:14:24.895Z,59.78
2022-11-28T07:16:51.584Z,59.92
2022-11-28T07:19:22.726Z,72.32
2022-11-28T07:21:50.433Z,61.17
2022-11-28T07:24:18.421Z,63.05
2022-11-28T07:26:46.787Z,60.28
2022-11-28T07:29:18.141Z,61.50
2022-11-28T07:31:45.130Z,70.20
2022-11-28T07:34:12.167Z,59.40
2022-11-28T07:36:38.834Z,60.67
2022-11-28T07:39:08.689Z,57.30
2022-11-28T07:41:35.611Z,64.80
2022-11-28T07:44:03.989Z,65.65
2022-11-28T07:46:32.158Z,56.60
2022-11-28T07:48:59.157Z,66.47
2022-11-28T07:51:32.431Z,60.70
2022-11-28T07:53:59.935Z,67.03
2022-11-28T07:56:39.349Z,67.70
2022-11-28T07:59:11.998Z,61.90
2022-11-28T08:01:39.049Z,65.00
2022-11-28T08:04:08.438Z,65.32
2022-11-28T08:06:41.025Z,68.05
2022-11-28T08:09:08.599Z,69.18
2022-11-28T08:11:35.798Z,60.58
2022-11-28T08:14:03.647Z,59.17
2022-11-28T08:16:32.425Z,59.22
2022-11-28T08:19:02.359Z,65.25
2022-11-28T08:21:33.278Z,76.40
2022-11-28T08:24:01.736Z,69.53
2022-11-28T08:26:31.045Z,53.83
2022-11-28T08:28:58.986Z,60.80
2022-11-28T08:31:27.870Z,61.40
2022-11-28T08:33:56.386Z,58.72
2022-11-28T08:36:22.922Z,61.20
2022-11-28T08:39:03.402Z,56.75
2022-11-28T08:41:36.922Z,51.08
2022-11-28T08:44:03.543Z,50.83
2022-11-28T08:46:30.703Z,58.97
2022-11-28T08:48:57.558Z,54.03
2022-11-28T08:51:25.206Z,58.88
2022-11-28T08:53:57.900Z,51.97
2022-11-28T08:56:26.342Z,56.13
2022-11-28T08:58:52.825Z,60.25
2022-11-28T09:01:28.544Z,55.53
2022-11-28T09:03:56.009Z,52.22
2022-11-28T09:06:23.334Z,42.67
2022-11-28T09:08:50.646Z,50.15
2022-11-28T09:11:19.431Z,53.50
2022-11-28T09:13:46.835Z,56.17
2022-11-28T09:16:14.574Z,49.22
2022-11-28T09:18:41.460Z,44.85
2022-11-28T09:21:10.150Z,64.60
2022-11-28T09:23:39.491Z,50.50
2022-11-28T09:26:10.623Z,48.70
2022-11-28T09:28:37.657Z,50.75
2022-11-28T09:31:05.836Z,48.58
2022-11-28T09:33:33.231Z,51.92
2022-11-28T09:36:07.900Z,38.70
2022-11-28T09:38:34.592Z,43.97
2022-11-28T09:41:02.559Z,52.05
2022-11-28T09:43:44.084Z,47.35
2022-11-28T09:46:20.118Z,48.27
2022-11-28T09:48:51.164Z,45.28
2022-11-28T09:51:37.021Z,41.95
2022-11-28T09:54:17.614Z,47.45
2022-11-28T09:56:49.194Z,43.15
2022-11-28T09:59:27.428Z,42.28
2022-11-28T10:02:00.079Z,48.95
2022-11-28T10:04:51.562Z,47.30
2022-11-28T10:07:42.785Z,43.50
2022-11-28T10:10:19.691Z,43.25
2022-11-28T10:13:07.235Z,47.72
2022-11-28T10:15:39.802Z,47.28
2022-11-28T10:18:18.830Z,36.47
2022-11-28T10:20:48.795Z,44.78
2022-11-28T10:23:22.978Z,49.80
2022-11-28T10:25:55.507Z,41.20
2022-11-28T10:28:25.965Z,38.30
2022-11-28T10:31:01.535Z,47.22
2022-11-28T10:33:39.285Z,40.53
2022-11-28T10:36:06.666Z,49.38
2022-11-28T10:38:34.885Z,40.13
2022-11-28T10:41:17.014Z,40.92
2022-11-28T10:44:01.855Z,39.10
2022-11-28T10:46:34.569Z,40.15
2022-11-28T10:49:26.755Z,37.78
2022-11-28T10:52:15.404Z,44.72
2022-11-28T10:54:56.394Z,46.00
2022-11-28T10:58:02.711Z,34.63
2022-11-28T11:00:29.723Z,41.72
2022-11-28T11:02:59.571Z,38.30
2022-11-28T11:05:30.844Z,37.20
2022-11-28T11:10:39.808Z,34.78
2022-11-28T11:13:17.107Z,33.90
2022-11-28T11:15:45.915Z,33.47
2022-11-28T11:18:24.831Z,36.10
2022-11-28T11:20:52.537Z,39.15
2022-11-28T11:23:22.244Z,32.10
2022-11-28T11:25:58.281Z,38.05
2022-11-28T11:28:36.307Z,29.38
2022-11-28T11:31:07.148Z,31.98
2022-11-28T11:33:36.780Z,34.63
2022-11-28T11:36:05.630Z,31.48
2022-11-28T11:38:38.057Z,33.45
2022-11-28T11:41:26.651Z,34.20
2022-11-28T11:43:53.267Z,36.70
2022-11-28T11:46:19.893Z,37.35
2022-11-28T11:48:50.817Z,41.45
2022-11-28T11:51:24.193Z,35.17
2022-11-28T11:54:19.907Z,30.70
2022-11-28T11:56:53.624Z,31.67
2022-11-28T11:59:47.848Z,44.35
2022-11-28T12:02:38.346Z,38.88
2022-11-28T12:05:13.789Z,40.47
2022-11-28T12:08:07.671Z,35.92
2022-11-28T12:10:39.827Z,34.45
2022-11-28T12:13:06.414Z,52.63
2022-11-28T12:16:14.292Z,39.35
2022-11-28T12:19:25.760Z,30.98
2022-11-28T12:22:04.549Z,41.45
2022-11-28T12:24:42.068Z,46.25
2022-11-28T12:27:14.547Z,33.58
2022-11-28T12:30:18.872Z,38.17
2022-11-28T12:33:03.723Z,39.33
2022-11-28T12:35:41.207Z,40.95
2022-11-28T12:38:31.282Z,42.28
2022-11-28T12:41:11.577Z,35.90
2022-11-28T12:43:55.762Z,47.60
2022-11-28T12:46:35.256Z,38.15
2022-11-28T12:49:14.331Z,34.45
2022-11-28T12:51:50.010Z,44.25
2022-11-28T12:54:38.116Z,40.53
2022-11-28T12:57:25.714Z,48.35
2022-11-28T13:00:08.479Z,34.53
2022-11-28T13:03:07.890Z,34.38
2022-11-28T13:05:50.032Z,38.13
2022-11-28T13:08:50.676Z,28.42
2022-11-28T13:11:53.980Z,36.22
2022-11-28T13:14:49.043Z,35.45
2022-11-28T13:17:44.350Z,40.60
2022-11-28T13:20:28.911Z,42.83
2022-11-28T13:23:26.789Z,33.17
2022-11-28T13:25:57.151Z,29.27
2022-11-28T13:28:35.903Z,36.88
2022-11-28T13:31:52.900Z,32.83
2022-11-28T13:34:21.908Z,34.60
2022-11-28T13:39:47.778Z,37.45
2022-11-28T13:44:53.345Z,41.05
2022-11-28T13:47:22.874Z,28.42
2022-11-28T13:52:32.344Z,29.63
2022-11-28T13:54:58.969Z,34.03
2022-11-28T13:57:38.402Z,31.85
2022-11-28T14:00:24.249Z,29.73
2022-11-28T14:02:59.889Z,35.72
2022-11-28T14:05:41.462Z,34.63
2022-11-28T14:08:09.028Z,34.00
2022-11-28T14:10:49.501Z,35.22
2022-11-28T14:13:47.503Z,37.15
2022-11-28T14:16:26.826Z,39.88
2022-11-28T14:18:57.762Z,42.50
2022-11-28T14:21:43.331Z,42.87
2022-11-28T14:24:34.427Z,41.70
2022-11-28T14:27:03.946Z,47.15
2022-11-28T14:29:39.468Z,46.30
2022-11-28T14:32:30.119Z,45.38
2022-11-28T14:34:59.762Z,49.07
2022-11-28T14:37:36.192Z,51.50
2022-11-28T14:40:04.522Z,82.13
2022-11-28T14:42:59.774Z,52.67
2022-11-28T14:45:45.428Z,49.20
2022-11-28T14:48:15.762Z,48.08
2022-11-28T14:50:46.818Z,46.58
2022-11-28T14:53:48.427Z,55.40
2022-11-28T14:56:15.403Z,44.90
2022-11-28T14:58:50.601Z,61.00
2022-11-28T15:01:33.382Z,72.57
2022-11-28T15:04:16.982Z,75.18
2022-11-28T15:06:44.718Z,99.55
2022-11-28T15:09:31.572Z,55.30
2022-11-28T15:12:23.244Z,54.67
2022-11-28T15:14:56.208Z,51.33
2022-11-28T15:17:28.485Z,54.20
2022-11-28T15:19:56.926Z,54.35
2022-11-28T15:22:38.070Z,53.30
2022-11-28T15:25:06.424Z,48.28
2022-11-28T15:27:33.341Z,66.20
2022-11-28T15:32:26.950Z,55.90
2022-11-28T15:35:09.363Z,48.60
2022-11-28T15:37:48.127Z,44.72
2022-11-28T15:40:29.388Z,47.65
2022-11-28T15:42:56.147Z,49.22
2022-11-28T15:45:31.030Z,61.83
2022-11-28T15:47:58.725Z,58.42
2022-11-28T15:50:28.461Z,52.65
2022-11-28T15:53:01.120Z,65.88
2022-11-28T15:55:34.290Z,60.55
2022-11-28T15:58:28.576Z,55.60
2022-11-28T16:01:26.174Z,47.05
2022-11-28T16:04:14.923Z,55.35
2022-11-28T16:06:46.227Z,49.63
2022-11-28T16:09:20.069Z,58.67
2022-11-28T16:11:49.521Z,61.17
2022-11-28T16:14:28.110Z,112.57
2022-11-28T16:16:56.743Z,334.52
2022-11-28T16:19:34.147Z,189.60
2022-11-28T16:22:05.283Z,311.63
2022-11-28T16:24:43.084Z,99.50
2022-11-28T16:27:48.709Z,63.60
2022-11-28T16:30:56.890Z,48.38
2022-11-28T16:35:25.756Z,223.35
2022-11-28T16:37:52.484Z,345.60
2022-11-28T16:40:23.869Z,184.52
2022-11-28T16:42:55.536Z,88.23
2022-11-28T16:45:26.848Z,140.52
2022-11-28T16:48:12.802Z,84.13
2022-11-28T16:51:01.319Z,104.18
2022-11-28T16:53:47.982Z,116.20
2022-11-28T16:58:42.115Z,133.98
2022-11-28T17:01:09.000Z,187.52
2022-11-28T17:03:50.479Z,113.80
2022-11-28T17:06:21.002Z,156.53
2022-11-28T17:08:48.094Z,116.03
2022-11-28T17:11:16.833Z,82.53
2022-11-28T17:16:05.984Z,149.70
2022-11-28T17:18:32.539Z,97.53
2022-11-28T17:20:59.863Z,64.60
2022-11-28T17:23:26.524Z,77.60
2022-11-28T17:28:09.160Z,76.03
2022-11-28T17:30:36.084Z,68.55
2022-11-28T17:33:05.021Z,68.43
2022-11-28T17:35:37.713Z,62.67
2022-11-28T17:38:04.309Z,59.75
2022-11-28T17:40:33.419Z,70.32
2022-11-28T17:43:01.213Z,60.42
2022-11-28T17:45:30.164Z,60.67
2022-11-28T17:49:17.702Z,77.82
2022-11-28T17:51:44.822Z,90.15
2022-11-28T17:54:16.249Z,75.53
2022-11-28T17:56:46.136Z,74.43
2022-11-28T17:59:13.567Z,76.60
2022-11-28T18:01:40.694Z,86.40
2022-11-28T18:04:07.785Z,78.95
2022-11-28T18:06:34.474Z,78.93
2022-11-28T18:09:05.955Z,86.13
2022-11-28T18:11:35.851Z,94.80
2022-11-28T18:14:02.738Z,76.95
2022-11-28T18:16:30.794Z,58.90
2022-11-28T18:19:00.562Z,67.00
2022-11-28T18:21:27.214Z,59.20
2022-11-28T18:23:54.499Z,69.55
2022-11-28T18:26:24.033Z,65.03
2022-11-28T18:28:51.685Z,70.30
2022-11-28T18:31:25.582Z,74.95
2022-11-28T18:33:56.247Z,82.40
2022-11-28T18:36:27.779Z,73.50
2022-11-28T18:39:01.547Z,78.57
2022-11-28T18:43:59.928Z,67.00
2022-11-28T18:48:25.985Z,72.95
2022-11-28T18:50:52.698Z,89.00
2022-11-28T18:53:19.864Z,81.88
2022-11-28T18:55:46.527Z,86.40
2022-11-28T18:58:13.110Z,71.63
2022-11-28T19:00:39.991Z,95.88
2022-11-28T19:03:07.279Z,80.00
2022-11-28T19:05:38.956Z,119.57
2022-11-28T19:08:05.935Z,160.73
2022-11-28T19:10:37.031Z,178.82
2022-11-28T19:13:03.945Z,130.52
2022-11-28T19:15:30.580Z,108.22
2022-11-28T19:17:58.140Z,101.55
2022-11-28T19:20:24.706Z,110.90
2022-11-28T19:22:51.364Z,110.47
2022-11-28T19:25:18.071Z,137.40
2022-11-28T19:27:45.264Z,124.75
2022-11-28T19:30:13.277Z,95.53
2022-11-28T19:32:39.958Z,114.95
2022-11-28T19:35:07.213Z,141.07
2022-11-28T19:37:36.937Z,145.20
2022-11-28T19:40:05.607Z,116.22
2022-11-28T19:42:32.636Z,125.13
2022-11-28T19:44:59.420Z,132.50
2022-11-28T19:47:27.003Z,115.80
2022-11-28T19:49:53.571Z,103.05
2022-11-28T19:52:20.179Z,88.13
2022-11-28T19:54:48.329Z,85.05
2022-11-28T19:57:15.139Z,102.22
2022-11-28T19:59:42.129Z,105.00
2022-11-28T20:02:10.338Z,77.15
2022-11-28T20:04:38.175Z,89.85
2022-11-28T20:07:04.859Z,110.60
2022-11-28T20:09:31.506Z,82.43
2022-11-28T20:11:58.467Z,75.63
2022-11-28T20:14:25.777Z,99.00
2022-11-28T20:16:55.713Z,84.03
2022-11-28T20:19:23.158Z,95.32
2022-11-28T20:21:54.020Z,75.97
2022-11-28T20:24:20.824Z,94.57
2022-11-28T20:26:47.775Z,95.75
2022-11-28T20:29:16.651Z,89.95
2022-11-28T20:31:47.201Z,90.65
2022-11-28T20:34:18.116Z,101.15
2022-11-28T20:36:50.146Z,105.00
2022-11-28T20:39:16.898Z,104.55
2022-11-28T20:41:43.443Z,100.60
2022-11-28T20:44:10.511Z,97.72
2022-11-28T20:46:37.143Z,89.22
2022-11-28T20:49:06.561Z,95.38
2022-11-28T20:51:34.404Z,132.77
2022-11-28T20:54:01.996Z,97.50
2022-11-28T20:56:31.633Z,100.38
2022-11-28T20:59:00.930Z,109.50
2022-11-28T21:01:30.862Z,117.75
2022-11-28T21:03:58.404Z,258.92
2022-11-28T21:06:25.559Z,220.88
2022-11-28T21:08:52.291Z,357.90
2022-11-28T21:11:43.786Z,415.13
2022-11-28T21:14:08.424Z,276.33
2022-11-28T21:16:36.914Z,430.58
2022-11-28T21:19:07.537Z,383.48
2022-11-28T21:21:36.847Z,252.25
2022-11-28T21:24:12.774Z,168.98
2022-11-28T21:26:44.233Z,390.02
2022-11-28T21:29:14.727Z,1009.95
2022-11-28T21:31:44.148Z,498.20
2022-11-28T21:34:17.585Z,547.15
2022-11-28T21:36:44.718Z,260.40
2022-11-28T21:39:20.046Z,119.35
2022-11-28T21:41:47.146Z,105.30
2022-11-28T21:44:13.893Z,187.02
2022-11-28T21:46:40.532Z,204.18
2022-11-28T21:49:07.371Z,251.65
2022-11-28T21:51:38.464Z,117.67
2022-11-28T21:54:05.963Z,104.72
2022-11-28T21:56:33.095Z,129.25
2022-11-28T21:58:59.761Z,146.35
2022-11-28T22:01:26.557Z,237.43
2022-11-28T22:03:59.011Z,120.22
2022-11-28T22:06:29.956Z,128.40
2022-11-28T22:08:57.222Z,155.80
2022-11-28T22:11:24.246Z,194.25
2022-11-28T22:13:52.691Z,183.13
2022-11-28T22:16:25.463Z,150.73
2022-11-28T22:18:54.922Z,149.18
2022-11-28T22:21:50.461Z,124.95
2022-11-28T22:24:08.941Z,111.72
2022-11-28T22:26:35.746Z,114.78
2022-11-28T22:29:04.051Z,127.55
2022-11-28T22:31:34.570Z,126.93
2022-11-28T22:34:01.278Z,99.20
2022-11-28T22:36:28.388Z,96.82
2022-11-28T22:38:57.214Z,97.45
2022-11-28T22:41:29.035Z,92.55
2022-11-28T22:44:00.491Z,95.18
2022-11-28T22:46:28.579Z,95.30
2022-11-28T22:48:55.479Z,91.35
2022-11-28T22:51:26.255Z,94.43
2022-11-28T22:53:59.213Z,73.00
2022-11-28T22:56:28.174Z,120.38
2022-11-28T22:58:55.047Z,119.68
2022-11-28T23:01:25.844Z,243.65
2022-11-28T23:03:53.927Z,231.05
2022-11-28T23:06:27.225Z,122.10
2022-11-28T23:08:55.802Z,110.15
2022-11-28T23:11:26.822Z,96.63
2022-11-28T23:13:54.053Z,92.13
2022-11-28T23:16:26.849Z,92.95
2022-11-28T23:18:59.602Z,140.82
2022-11-28T23:23:55.152Z,243.73
2022-11-28T23:26:23.921Z,313.40
2022-11-28T23:29:11.578Z,443.55
2022-11-28T23:31:40.919Z,332.05
2022-11-28T23:34:09.090Z,251.55
2022-11-28T23:36:42.683Z,395.42
2022-11-28T23:39:11.843Z,375.77
2022-11-28T23:44:04.510Z,445.20
2022-11-28T23:46:34.515Z,282.00
2022-11-28T23:49:01.034Z,413.52
2022-11-28T23:51:27.756Z,353.65
2022-11-28T23:53:54.778Z,225.45
2022-11-28T23:56:27.515Z,465.20
2022-11-28T23:58:55.635Z,1268.57
